Tiempo atmosférico en la estación meteorológica de Pola de Lena, Asturias (370 m.)



Fecha
DESCASC
Temp. máxima en grados centígrados (hora)
DESCASC
Temp. mínima en grados centígrados (hora)
DESCASC
Temp. media en grados centígrados
DESCASC
Racha de viento máxima en m/sg (hora)
DESCASC
Velocidad máxima media en intervalos de 10 minutos(hora)
DESCASC
Precipitaciones diarias en mm
DESCASC
Precipitaciones de 00:00 a 06:00 en mm
DESCASC
Precipitaciones de 06:00 a 12:00 en mm
DESCASC
Precipitaciones de 12:00 a 18:00 en mm
DESCASC
Precipitaciones de 18:00 a 24:00 en mm
DESCASC

Gráficas

Temp. máximas Temp. mínimas Temp. medias Precipitaciones Rachas de viento máximas Velocidades máximas media en intervalos de 10 minutos

Datos horarios

Fecha y hora oficial Temperatura (ºC) Velocidad del viento (km/h) Dirección del viento Racha (km/h) Dirección de racha Precipitación (mm) Presión (hPa) Tendencia (hPa) Humedad (%)
2021-03-01 23:00:00 9.4 5 Sur 12 Sudeste 1 -- -- 94
2021-03-01 22:00:00 10.2 0 Calma 15 Este 0.6 -- -- 90
2021-03-01 21:00:00 11.3 5 Sudoeste 11 Oeste 0 -- -- 76
2021-03-01 20:00:00 11.1 3 Sudoeste 14 Oeste 0 -- -- 79
2021-03-01 19:00:00 12.6 9 Sudoeste 15 Sudoeste 0 -- -- 68
2021-03-01 18:00:00 12.9 8 Sur 22 Sur 0 -- -- 67
2021-03-01 17:00:00 13 12 Sur 28 Sur 0 -- -- 68
2021-03-01 16:00:00 13 16 Sur 35 Sudeste 0 -- -- 63
2021-03-01 15:00:00 12.7 12 Sur 38 Sur 0 -- -- 64
2021-03-01 14:00:00 13.2 18 Sudeste 44 Sudeste 0 -- -- 65
2021-03-01 13:00:00 12.8 17 Sudeste 41 Sudeste 0 -- -- 66
2021-03-01 12:00:00 11.7 11 Sur 30 Sur 0 -- -- 70
2021-03-01 11:00:00 9.7 3 Sudeste 15 Sudoeste 0.4 -- -- 86
2021-03-01 10:00:00 7.8 7 Sur 23 Sudeste 0.2 -- -- 88
2021-03-01 09:00:00 8.1 13 Sur 28 Sudeste 0.8 -- -- 83
2021-03-01 08:00:00 9.9 12 Sur 27 Sudeste 0 -- -- 73
2021-03-01 07:00:00 9.3 9 Sur 30 Sudeste 0 -- -- 78
2021-03-01 06:00:00 5.5 2 Sur 6 Este 0.2 -- -- 100
2021-03-01 05:00:00 4.6 0 Calma 6 Sudoeste 0 -- -- 99
2021-03-01 04:00:00 5 2 Sur 5 Oeste 0 -- -- 98
2021-03-01 03:00:00 5.3 4 Norte 9 Norte 0.2 -- -- 98
2021-03-01 02:00:00 5.4 2 Sudoeste 5 Oeste 0 -- -- 97
2021-03-01 01:00:00 5.4 0 Calma 5 Sur 0.2 -- -- 96
2021-03-01 00:00:00 5.2 2 Noroeste 6 Sur 0.2 -- -- 95
2021-02-28 23:00:00 5.2 3 Sur 7 Sur 0 -- -- 92
2021-02-28 22:00:00 6.8 0 Calma 8 Sudeste 0 -- -- 89
2021-02-28 21:00:00 7 3 Sur 8 Sudeste 0 -- -- 87
2021-02-28 20:00:00 8 4 Oeste 14 Sudoeste 0 -- -- 81
2021-02-28 19:00:00 9.3 8 Sudoeste 16 Sudoeste 0 -- -- 73
2021-02-28 18:00:00 10.3 4 Noroeste 17 Norte 0 -- -- 70
2021-02-28 17:00:00 11.4 6 Norte 14 Norte 0 -- -- 62
2021-02-28 16:00:00 11.8 5 Norte 13 Nordeste 0 -- -- 59
2021-02-28 15:00:00 10.9 4 Norte 17 Norte 0 -- -- 62
2021-02-28 14:00:00 10.1 6 Norte 13 Norte 0 -- -- 66
2021-02-28 13:00:00 8.4 3 Norte 10 Norte 0 -- -- 71
2021-02-28 12:00:00 7.8 5 Norte 12 Norte 0 -- -- 76
2021-02-28 11:00:00 6.8 2 Norte 6 Norte 0 -- -- 87
2021-02-28 10:00:00 5.8 5 Sudeste 8 Sudeste 0 -- -- 89
2021-02-28 09:00:00 5.8 2 Sudeste 4 Sudeste 0 -- -- 93
2021-02-28 08:00:00 6.1 0 Calma 8 Sur 0 -- -- 91
2021-02-28 07:00:00 6.3 0 Calma 2 Oeste 0 -- -- 94
2021-02-28 06:00:00 6.7 0 Calma 4 Nordeste 0 -- -- 94
2021-02-28 05:00:00 6.8 0 Calma 3 Norte 0 -- -- 95
2021-02-28 04:00:00 6.9 0 Calma 5 Nordeste 0 -- -- 94
2021-02-28 03:00:00 7 3 Norte 7 Sudoeste 0 -- -- 94
2021-02-28 02:00:00 7.1 3 Sudoeste 8 Sudoeste 0 -- -- 93
2021-02-28 01:00:00 7.3 3 Noroeste 8 Nordeste 0 -- -- 92
2021-02-28 00:00:00 7.7 3 Sudoeste 6 Noroeste 0 -- -- 92
2021-02-27 23:00:00 8 4 Sudoeste 11 Sudoeste 0 -- -- 91
2021-02-27 22:00:00 8.3 4 Sudoeste 10 Sudoeste 0 -- -- 91
2021-02-27 21:00:00 8.8 3 Oeste 10 Norte 0 -- -- 90
2021-02-27 20:00:00 9.2 3 Sudoeste 9 Norte 0 -- -- 89
2021-02-27 19:00:00 9.6 3 Noroeste 10 Norte 0 -- -- 88
2021-02-27 18:00:00 9.9 4 Norte 12 Norte 0 -- -- 87
2021-02-27 17:00:00 10.7 4 Norte 14 Nordeste 0 -- -- 85
2021-02-27 16:00:00 11.2 7 Norte 12 Norte 0 -- -- 84
2021-02-27 15:00:00 11.3 3 Nordeste 6 Norte 0 -- -- 81
2021-02-27 14:00:00 10.6 0 Calma 5 Norte 0 -- -- 86
2021-02-27 13:00:00 10.2 2 Norte 4 Norte 0 -- -- 92
2021-02-27 12:00:00 9.9 0 Calma 4 Nordeste 0 -- -- 94
2021-02-27 11:00:00 9.5 0 Calma 4 Norte 0 -- -- 98
2021-02-27 10:00:00 9.2 2 Norte 3 Norte 0 -- -- 99
2021-02-27 09:00:00 9 0 Calma 2 Noroeste 0 -- -- 99
2021-02-27 08:00:00 9.1 0 Calma 4 Sudoeste 0 -- -- 97
2021-02-27 07:00:00 9.1 0 Calma 4 Sudoeste 0 -- -- 98
2021-02-27 06:00:00 9.2 0 Calma 3 Norte 0 -- -- 99
2021-02-27 05:00:00 9.2 2 Sudoeste 5 Sudoeste 0 -- -- 99
2021-02-27 04:00:00 9.3 0 Calma 2 Noroeste 0 -- -- 98
2021-02-27 03:00:00 9.3 0 Calma 0 Calma 0 -- -- 99
2021-02-27 02:00:00 9.2 0 Calma 5 Oeste 0.2 -- -- 99
2021-02-27 01:00:00 9.3 2 Noroeste 6 Oeste 0 -- -- 99
2021-02-27 00:00:00 9.4 4 Oeste 8 Oeste 0.2 -- -- 97
2021-02-26 23:00:00 9.9 3 Noroeste 8 Noroeste 0 -- -- 93
2021-02-26 22:00:00 10.3 2 Norte 14 Sur 0 -- -- 90
2021-02-26 21:00:00 10.5 4 Oeste 9 Oeste 0 -- -- 88
2021-02-26 20:00:00 10.8 3 Sudoeste 9 Noroeste 0 -- -- 87
2021-02-26 19:00:00 11.1 3 Noroeste 12 Nordeste 0 -- -- 86
2021-02-26 18:00:00 11.5 4 Nordeste 16 Noroeste 0 -- -- 84
2021-02-26 17:00:00 11.9 4 Nordeste 17 Norte 0 -- -- 83
2021-02-26 16:00:00 12.2 4 Nordeste 13 Nordeste 0 -- -- 82
2021-02-26 15:00:00 12.1 2 Este 12 Norte 0 -- -- 83
2021-02-26 14:00:00 11.8 4 Norte 13 Norte 0 -- -- 85
2021-02-26 13:00:00 11.5 5 Norte 10 Norte 0 -- -- 88
2021-02-26 12:00:00 10.8 3 Nordeste 6 Norte 0 -- -- 92
2021-02-26 11:00:00 9.8 0 Calma 5 Norte 0 -- -- 97
2021-02-26 10:00:00 9 0 Calma 3 Norte 0 -- -- 99
2021-02-26 09:00:00 8.5 0 Calma 4 Sudoeste 0 -- -- 100
2021-02-26 08:00:00 8.4 0 Calma 4 Sur 0 -- -- 99
2021-02-26 07:00:00 8.4 0 Calma 3 Sudeste 0 -- -- 100
2021-02-26 06:00:00 8.4 2 Sudeste 4 Sudeste 0 -- -- 100
2021-02-26 05:00:00 8.4 0 Calma 4 Oeste 0 -- -- 100
2021-02-26 04:00:00 8.5 0 Calma 3 Oeste 0 -- -- 99
2021-02-26 03:00:00 8.6 0 Calma 4 Este 0 -- -- 99
2021-02-26 02:00:00 8.6 2 Oeste 4 Sudoeste 0 -- -- 99
2021-02-26 01:00:00 8.7 0 Calma 2 Sudoeste 0 -- -- 99
2021-02-26 00:00:00 8.6 2 Sudoeste 5 Oeste 0 -- -- 99
2021-02-25 23:00:00 8.8 0 Calma 5 Sudeste 0 -- -- 99
2021-02-25 22:00:00 8.9 0 Calma 3 Sudeste 0.2 -- -- 98
2021-02-25 21:00:00 8.9 0 Calma 2 Sudeste 0 -- -- 98
2021-02-25 20:00:00 9 0 Calma 3 Oeste 0 -- -- 97
2021-02-25 19:00:00 9.1 0 Calma 4 Este 0 -- -- 96
2021-02-25 18:00:00 9.1 2 Sudeste 4 Sudeste 0 -- -- 96
2021-02-25 17:00:00 9.1 0 Calma 5 Norte 0 -- -- 95
2021-02-25 16:00:00 9.2 4 Norte 8 Sudoeste 0 -- -- 94
2021-02-25 15:00:00 9 5 Norte 9 Norte 0 -- -- 93
2021-02-25 14:00:00 9 3 Noroeste 8 Noroeste 0.2 -- -- 92
2021-02-25 13:00:00 8.9 3 Norte 10 Sudoeste 0 -- -- 93
2021-02-25 12:00:00 8.5 6 Sudoeste 13 Oeste 0 -- -- 94
2021-02-25 11:00:00 8.4 5 Noroeste 12 Sur 0 -- -- 96
2021-02-25 10:00:00 8.5 3 Norte 17 Oeste 0.6 -- -- 95
2021-02-25 09:00:00 8.9 3 Noroeste 13 Oeste 3.8 -- -- 97
2021-02-25 08:00:00 9.1 3 Noroeste 12 Sudoeste 2.6 -- -- 96
2021-02-25 07:00:00 9.2 4 Oeste 12 Oeste 2.8 -- -- 95
2021-02-25 06:00:00 9.7 5 Oeste 14 Noroeste 0 -- -- 92
2021-02-25 05:00:00 10.1 2 Norte 11 Norte 1 -- -- 91
2021-02-25 04:00:00 10.7 5 Norte 17 Norte 0 -- -- 85
2021-02-25 03:00:00 10.7 5 Noroeste 15 Noroeste 0 -- -- 83
2021-02-25 02:00:00 11.7 4 Oeste 23 Sudoeste 0 -- -- 74
2021-02-25 01:00:00 14.8 6 Sur 13 Sur 0 -- -- 57
2021-02-25 00:00:00 15 5 Sudoeste 13 Sur 0 -- -- 56
2021-02-24 23:00:00 14.8 6 Sur 13 Sur 0 -- -- 55
2021-02-24 22:00:00 14.8 7 Sur 15 Sudoeste 0 -- -- 54
2021-02-24 21:00:00 15 8 Sur 23 Sur 0 -- -- 53
2021-02-24 20:00:00 15.7 10 Sur 21 Sur 0 -- -- 50
2021-02-24 19:00:00 16.1 8 Sur 26 Sudeste 0 -- -- 49
2021-02-24 18:00:00 16.9 8 Sur 24 Sudeste 0 -- -- 47
2021-02-24 17:00:00 17.9 10 Sur 31 Sudeste 0 -- -- 43
2021-02-24 16:00:00 19 11 Sur 39 Sudeste 0 -- -- 39
2021-02-24 15:00:00 19.3 12 Sudeste 40 Sudeste 0 -- -- 37
2021-02-24 14:00:00 18.4 20 Sudeste 46 Sudeste 0 -- -- 40
2021-02-24 13:00:00 17.5 23 Sudeste 48 Este 0 -- -- 43
2021-02-24 12:00:00 17.3 22 Sudeste 52 Sudeste 0 -- -- 42
2021-02-24 11:00:00 15.9 20 Sudeste 51 Sudeste 0 -- -- 44
2021-02-24 10:00:00 14.7 16 Sudeste 45 Sudeste 0 -- -- 46
2021-02-24 09:00:00 12.6 20 Sudeste 40 Sudeste 0 -- -- 50
2021-02-24 08:00:00 12.7 16 Sudeste 40 Sudeste 0 -- -- 51
2021-02-24 07:00:00 13.1 21 Sudeste 49 Sudeste 0 -- -- 48
2021-02-24 06:00:00 13.1 14 Sudeste 40 Sudeste 0 -- -- 47
2021-02-24 05:00:00 13.4 23 Sudeste 46 Este 0 -- -- 43
2021-02-24 04:00:00 13.5 21 Sudeste 51 Sudeste 0 -- -- 44
2021-02-24 03:00:00 13.1 13 Sur 35 Sudeste 0 -- -- 44
2021-02-24 02:00:00 13.4 17 Sudeste 39 Sudeste 0 -- -- 46
2021-02-24 01:00:00 13.9 21 Sudeste 46 Sudeste 0 -- -- 42
2021-02-24 00:00:00 14.1 17 Sudeste 38 Sudeste 0 -- -- 41
2021-02-23 23:00:00 13.9 16 Sudeste 38 Sudeste 0 -- -- 44
2021-02-23 22:00:00 13.8 16 Sudeste 46 Sudeste 0 -- -- 45
2021-02-23 21:00:00 13.9 18 Sudeste 42 Sudeste 0 -- -- 45
2021-02-23 20:00:00 14.3 17 Sudeste 37 Sudeste 0 -- -- 42
2021-02-23 19:00:00 14.7 17 Sudeste 42 Sudeste 0 -- -- 43
2021-02-23 18:00:00 15.2 16 Sur 33 Sudeste 0 -- -- 43
2021-02-23 17:00:00 16 15 Sur 37 Sudeste 0 -- -- 44
2021-02-23 16:00:00 16.5 20 Sur 45 Sur 0 -- -- 43
2021-02-23 15:00:00 16.6 23 Sur 49 Sudeste 0 -- -- 42
2021-02-23 14:00:00 16.4 21 Sudeste 43 Sudeste 0 -- -- 44
2021-02-23 13:00:00 15.6 22 Sudeste 52 Sudeste 0 -- -- 46
2021-02-23 12:00:00 14.8 25 Sudeste 51 Este 0 -- -- 47
2021-02-23 11:00:00 13.7 23 Sudeste 50 Sudeste 0 -- -- 49
2021-02-23 10:00:00 12.9 21 Sudeste 47 Sur 0 -- -- 48
2021-02-23 09:00:00 11.7 22 Sudeste 49 Sudeste 0 -- -- 46
2021-02-23 08:00:00 11.5 19 Sudeste 43 Sudeste 0 -- -- 44
2021-02-23 07:00:00 11.2 17 Sudeste 39 Sudeste 0 -- -- 41
2021-02-23 06:00:00 10.9 14 Sudeste 46 Sudeste 0 -- -- 45
2021-02-23 05:00:00 11.2 17 Sudeste 41 Sudeste 0 -- -- 47
2021-02-23 04:00:00 10.6 12 Sur 31 Sudeste 0 -- -- 44
2021-02-23 03:00:00 9.9 9 Sur 26 Sur 0 -- -- 43
2021-02-23 02:00:00 10 12 Sur 30 Sudeste 0 -- -- 48
2021-02-23 01:00:00 9.9 13 Sur 26 Sur 0 -- -- 50
2021-02-23 00:00:00 9.7 10 Sur 19 Sur 0 -- -- 53
2021-02-22 23:00:00 8.5 8 Sur 21 Sudoeste 0 -- -- 54
2021-02-22 22:00:00 3.1 0 Calma 4 Oeste 0 -- -- 85
2021-02-22 21:00:00 3.9 0 Calma 7 Sur 0 -- -- 82
2021-02-22 20:00:00 5.6 4 Sur 12 Sudeste 0 -- -- 75
2021-02-22 19:00:00 7.4 0 Calma 10 Oeste 0 -- -- 68
2021-02-22 18:00:00 10.2 8 Oeste 15 Sudoeste 0 -- -- 53
2021-02-22 17:00:00 12.3 6 Oeste 9 Oeste 0 -- -- 46
2021-02-22 16:00:00 14.6 3 Oeste 9 Sur 0 -- -- 36
2021-02-22 15:00:00 14.1 5 Sur 13 Sudeste 0 -- -- 39
2021-02-22 14:00:00 12.7 8 Sudeste 16 Este 0 -- -- 44
2021-02-22 13:00:00 11.3 8 Este 14 Sur 0 -- -- 57
2021-02-22 12:00:00 9.5 2 Sudeste 8 Norte 0 -- -- 71
2021-02-22 11:00:00 6.8 4 Norte 17 Este 0 -- -- 85
2021-02-22 10:00:00 4.1 10 Sudeste 16 Sudeste 0 -- -- 96
2021-02-22 09:00:00 1.1 5 Sur 8 Sudeste 0 -- -- 100
2021-02-22 08:00:00 1.2 5 Sur 9 Sudeste 0 -- -- 100
2021-02-22 07:00:00 1.7 0 Calma 3 Sur 0 -- -- 99
2021-02-22 06:00:00 3.2 2 Sudoeste 4 Sudoeste 0 -- -- 100
2021-02-22 05:00:00 3.3 0 Calma 8 Este 0 -- -- 100
2021-02-22 04:00:00 3.6 2 Sudeste 8 Sudoeste 0 -- -- 99
2021-02-22 03:00:00 3.5 0 Calma 4 Oeste 0 -- -- 99
2021-02-22 02:00:00 4.2 0 Calma 4 Noroeste 0 -- -- 99
2021-02-22 01:00:00 4.4 2 Norte 5 Norte 0 -- -- 99
2021-02-22 00:00:00 4.4 2 Sur 3 Sudeste 0.2 -- -- 98
2021-02-21 23:00:00 4.4 2 Noroeste 3 Noroeste 0.2 -- -- 98
2021-02-21 22:00:00 4.4 0 Calma 13 Este 0 -- -- 96
2021-02-21 21:00:00 4.6 6 Sudeste 13 Sudeste 0.8 -- -- 94
2021-02-21 20:00:00 4.8 7 Sudeste 12 Sudeste 1.2 -- -- 95
2021-02-21 19:00:00 5.4 3 Sudeste 5 Sudeste 1.4 -- -- 95
2021-02-21 18:00:00 5.9 0 Calma 5 Noroeste 1.8 -- -- 94
2021-02-21 17:00:00 6.4 0 Calma 8 Nordeste 2.4 -- -- 97
2021-02-21 16:00:00 6.3 3 Noroeste 9 Nordeste 3 -- -- 96
2021-02-21 15:00:00 6.5 4 Este 19 Sudoeste 3.4 -- -- 94
2021-02-21 14:00:00 7.8 7 Noroeste 17 Noroeste 2.2 -- -- 94
2021-02-21 13:00:00 8.6 3 Sur 24 Norte 1.6 -- -- 95
2021-02-21 12:00:00 9.1 8 Norte 20 Sudoeste 0.8 -- -- 94
2021-02-21 11:00:00 9.5 6 Sur 22 Sudoeste 0.4 -- -- 93
2021-02-21 10:00:00 9.4 7 Noroeste 14 Norte 0.8 -- -- 93
2021-02-21 09:00:00 9.6 6 Noroeste 24 Norte 0.2 -- -- 88
2021-02-21 08:00:00 9.9 12 Sudoeste 25 Sudoeste 0 -- -- 87
2021-02-21 07:00:00 9.8 5 Noroeste 24 Norte 0 -- -- 86
2021-02-21 06:00:00 10 9 Oeste 30 Sudoeste 0 -- -- 84
2021-02-21 05:00:00 10.4 6 Nordeste 18 Norte 0 -- -- 78
2021-02-21 04:00:00 10.5 6 Noroeste 21 Noroeste 0 -- -- 65
2021-02-21 03:00:00 10.6 6 Oeste 13 Oeste 0 -- -- 67
2021-02-21 02:00:00 11.4 4 Sudoeste 28 Sudeste 0 -- -- 67
2021-02-21 01:00:00 12.2 13 Sudeste 26 Sudeste 0 -- -- 61
2021-02-21 00:00:00 12.8 13 Sudeste 40 Sudeste 0 -- -- 63
2021-02-20 23:00:00 13.1 24 Sudeste 43 Sudeste 0 -- -- 58
2021-02-20 22:00:00 11.2 5 Sudoeste 33 Sudeste 0.4 -- -- 76
2021-02-20 21:00:00 11.4 10 Sur 25 Sudeste 0.4 -- -- 74
2021-02-20 20:00:00 12.1 9 Sur 37 Sudeste 0.2 -- -- 71
2021-02-20 19:00:00 12.6 16 Sudeste 42 Este 0.2 -- -- 70
2021-02-20 18:00:00 12.6 17 Sudeste 44 Sudeste 0.2 -- -- 70
2021-02-20 17:00:00 13.3 22 Sudeste 45 Sudeste 0 -- -- 67
2021-02-20 16:00:00 14.1 17 Sudeste 53 Sudeste 0 -- -- 59
2021-02-20 15:00:00 14.8 19 Este 49 Sudeste 0 -- -- 59
2021-02-20 14:00:00 15.5 28 Sudeste 57 Sudeste 0 -- -- 53
2021-02-20 13:00:00 15.4 22 Sudeste 57 Sudeste 0 -- -- 52
2021-02-20 12:00:00 15.9 27 Sudeste 67 Sudeste 0 -- -- 49
2021-02-20 11:00:00 15.4 29 Sudeste 62 Sudeste 0 -- -- 49
2021-02-20 10:00:00 14.1 24 Sudeste 53 Sudeste 0 -- -- 53
2021-02-20 09:00:00 13.7 15 Sudeste 48 Sudeste 0 -- -- 54
2021-02-20 08:00:00 13.8 22 Sudeste 60 Sudeste 0 -- -- 53
2021-02-20 07:00:00 14.1 19 Sudeste 49 Este 0 -- -- 51
2021-02-20 06:00:00 14.3 21 Sudeste 54 Este 0 -- -- 52
2021-02-20 05:00:00 14.4 23 Sudeste 57 Sudeste 0 -- -- 55
2021-02-20 04:00:00 14.9 21 Sudeste 49 Este 0 -- -- 54
2021-02-20 03:00:00 14.9 15 Este 34 Sudeste 0 -- -- 55
2021-02-20 02:00:00 14.8 6 Este 38 Sudeste 0 -- -- 56
2021-02-20 01:00:00 14.9 20 Este 43 Este 0 -- -- 56
2021-02-20 00:00:00 14.7 20 Sudeste 45 Este 0 -- -- 55
2021-02-19 23:00:00 14.7 13 Sudeste 43 Sudeste 0 -- -- 55
2021-02-19 22:00:00 14.6 14 Sudeste 41 Este 0 -- -- 55
2021-02-19 21:00:00 14.9 19 Sudeste 55 Sudeste 0 -- -- 53
2021-02-19 20:00:00 14.8 17 Sudeste 49 Sudeste 0 -- -- 53
2021-02-19 19:00:00 14.8 24 Sudeste 48 Este 0 -- -- 52
2021-02-19 18:00:00 15.3 16 Sur 42 Sur 0 -- -- 52
2021-02-19 17:00:00 15.5 20 Sur 50 Sudeste 0 -- -- 51
2021-02-19 16:00:00 15.4 16 Sudeste 41 Sudeste 0 -- -- 53
2021-02-19 15:00:00 15.7 16 Sur 37 Sudeste 0 -- -- 54
2021-02-19 14:00:00 15.8 17 Sudeste 49 Sur 0 -- -- 55
2021-02-19 13:00:00 15.4 19 Sur 41 Sur 0 -- -- 55
2021-02-19 12:00:00 14.9 22 Sur 61 Sur 0 -- -- 55
2021-02-19 11:00:00 14.4 22 Sudeste 43 Sudeste 0 -- -- 56
2021-02-19 10:00:00 14.2 18 Sudeste 46 Sudeste 0 -- -- 56
2021-02-19 09:00:00 13.6 20 Sudeste 40 Este 0 -- -- 57
2021-02-19 08:00:00 13.1 13 Sur 39 Sudeste 0 -- -- 57
2021-02-19 07:00:00 13.2 15 Sudeste 36 Sudeste 0 -- -- 55
2021-02-19 06:00:00 13.1 16 Sur 35 Sudeste 0 -- -- 57
2021-02-19 05:00:00 12.8 16 Sudeste 36 Sudeste 0 -- -- 56
2021-02-19 04:00:00 12.6 12 Sur 39 Sudeste 0 -- -- 56
2021-02-19 03:00:00 12.5 14 Sur 41 Sudeste 0 -- -- 57
2021-02-19 02:00:00 12 14 Sudeste 36 Sudeste 0 -- -- 60
2021-02-19 01:00:00 7.9 8 Sudeste 23 Este 0 -- -- 84
2021-02-19 00:00:00 5.6 4 Norte 10 Oeste 0 -- -- 96
2021-02-18 23:00:00 6.1 6 Oeste 12 Noroeste 0 -- -- 98
2021-02-18 22:00:00 5.6 2 Noroeste 5 Oeste 0 -- -- 95
2021-02-18 21:00:00 6.9 0 Calma 7 Sudoeste 0 -- -- 92
2021-02-18 20:00:00 8.5 3 Sur 6 Sudoeste 0 -- -- 88
2021-02-18 19:00:00 10.3 3 Oeste 7 Oeste 0 -- -- 84
2021-02-18 18:00:00 11.4 2 Norte 11 Norte 0 -- -- 77
2021-02-18 17:00:00 11.3 4 Norte 19 Norte 0 -- -- 78
2021-02-18 16:00:00 11.3 6 Norte 21 Norte 0 -- -- 79
2021-02-18 15:00:00 11.1 8 Norte 23 Norte 0 -- -- 82
2021-02-18 14:00:00 10.8 7 Norte 14 Norte 0.2 -- -- 88
2021-02-18 13:00:00 10.3 5 Sudoeste 19 Norte 0.8 -- -- 91
2021-02-18 12:00:00 11.3 5 Nordeste 22 Nordeste 0 -- -- 84
2021-02-18 11:00:00 12.1 4 Noroeste 17 Noroeste 0 -- -- 80
2021-02-18 10:00:00 12.1 8 Sudoeste 16 Sur 0 -- -- 73
2021-02-18 09:00:00 11.1 6 Sur 11 Sur 0.6 -- -- 84
2021-02-18 08:00:00 13.3 9 Sudeste 19 Sudeste 0 -- -- 64
2021-02-18 07:00:00 13.9 13 Sudeste 31 Sudeste 0 -- -- 60
2021-02-18 06:00:00 13.8 9 Sudeste 30 Sudeste 0 -- -- 62
2021-02-18 05:00:00 15 9 Sudeste 32 Sudeste 0 -- -- 56
2021-02-18 04:00:00 15.3 14 Sudeste 37 Sudeste 0 -- -- 54
2021-02-18 03:00:00 15.3 12 Sudeste 35 Este 0 -- -- 56
2021-02-18 02:00:00 15.3 10 Sudeste 32 Sudeste 0 -- -- 57
2021-02-18 01:00:00 15 7 Sudeste 21 Este 0 -- -- 61
2021-02-18 00:00:00 15.9 13 Sudeste 31 Este 0 -- -- 57
2021-02-17 23:00:00 15.7 11 Sudeste 25 Este 0 -- -- 60
2021-02-17 22:00:00 14.9 12 Sudeste 27 Este 0 -- -- 62
2021-02-17 21:00:00 14.8 6 Sur 32 Sudeste 0 -- -- 61
2021-02-17 20:00:00 15.1 16 Sudeste 38 Sudeste 0 -- -- 61
2021-02-17 19:00:00 14.9 12 Sur 32 Sudeste 0 -- -- 59
2021-02-17 18:00:00 15.6 10 Sur 37 Sudeste 0 -- -- 54
2021-02-17 17:00:00 16.2 22 Sudeste 42 Sudeste 0 -- -- 48
2021-02-17 16:00:00 15.9 21 Sudeste 42 Sudeste 0 -- -- 49
2021-02-17 15:00:00 16.5 19 Sur 37 Sur 0 -- -- 46
2021-02-17 14:00:00 16.3 17 Sur 39 Sudeste 0 -- -- 50
2021-02-17 13:00:00 15.2 21 Sur 44 Sudeste 0 -- -- 51
2021-02-17 12:00:00 13.2 14 Sudeste 28 Sudeste 0 -- -- 55
2021-02-17 11:00:00 12.3 6 Sudeste 27 Sur 0 -- -- 62
2021-02-17 10:00:00 10.4 9 Sur 25 Sur 0 -- -- 64
2021-02-17 09:00:00 1.9 2 Sur 6 Oeste 0 -- -- 97
2021-02-17 08:00:00 1.2 0 Calma 3 Oeste 0 -- -- 95
2021-02-17 07:00:00 1.4 0 Calma 4 Oeste 0 -- -- 94
2021-02-17 06:00:00 1.9 0 Calma 4 Sudoeste 0 -- -- 92
2021-02-17 05:00:00 2.4 0 Calma 4 Oeste 0 -- -- 92
2021-02-17 04:00:00 3 0 Calma 4 Oeste 0 -- -- 90
2021-02-17 03:00:00 3.3 0 Calma 5 Sudeste 0 -- -- 90
2021-02-17 02:00:00 3.7 2 Oeste 5 Oeste 0 -- -- 89
2021-02-17 01:00:00 4.1 0 Calma 6 Oeste 0 -- -- 89
2021-02-17 00:00:00 4.8 2 Oeste 5 Sudoeste 0 -- -- 86
2021-02-16 23:00:00 5.3 0 Calma 6 Este 0 -- -- 87
2021-02-16 22:00:00 6.2 0 Calma 6 Norte 0 -- -- 89
2021-02-16 21:00:00 7.7 3 Sur 6 Sudeste 0 -- -- 87
2021-02-16 20:00:00 9.1 2 Sudoeste 7 Sudoeste 0 -- -- 85
2021-02-16 19:00:00 12.2 4 Sudoeste 17 Sudoeste 0 -- -- 74
2021-02-16 18:00:00 13.5 4 Oeste 14 Oeste 0 -- -- 73
2021-02-16 17:00:00 14.4 6 Noroeste 23 Norte 0 -- -- 69
2021-02-16 16:00:00 14.8 9 Sudeste 17 Sudeste 0 -- -- 68
2021-02-16 15:00:00 13.2 8 Sudeste 14 Sudeste 0 -- -- 79
2021-02-16 14:00:00 11.9 4 Norte 10 Norte 0 -- -- 85
2021-02-16 13:00:00 10.9 5 Norte 14 Sudoeste 0.2 -- -- 87
2021-02-16 12:00:00 10.7 6 Sudoeste 39 Norte 0 -- -- 82
2021-02-16 11:00:00 14.4 7 Sur 21 Sudeste 0 -- -- 55
2021-02-16 10:00:00 14.4 11 Sur 35 Sudeste 0 -- -- 51
2021-02-16 09:00:00 13.9 14 Sudeste 28 Sudeste 0 -- -- 52
2021-02-16 08:00:00 13.5 9 Sudeste 28 Sudeste 0 -- -- 53
2021-02-16 07:00:00 14 8 Sudeste 23 Este 0 -- -- 54
2021-02-16 06:00:00 14.2 8 Sur 31 Sudeste 0 -- -- 55
2021-02-16 05:00:00 14.6 16 Este 34 Este 0 -- -- 55
2021-02-16 04:00:00 14.8 17 Sudeste 34 Sudeste 0 -- -- 53
2021-02-16 03:00:00 14.7 14 Sudeste 30 Sur 0 -- -- 53
2021-02-16 02:00:00 15.3 12 Sur 39 Sur 0 -- -- 51
2021-02-16 01:00:00 16.1 17 Sudeste 44 Sudeste 0 -- -- 48
2021-02-16 00:00:00 16.4 19 Sudeste 49 Sudeste 0 -- -- 49
2021-02-15 23:00:00 16.7 18 Sudeste 38 Sudeste 0 -- -- 50
2021-02-15 22:00:00 16.3 10 Sudeste 34 Sur 0 -- -- 50
2021-02-15 21:00:00 16.9 16 Sudeste 41 Este 0 -- -- 49
2021-02-15 20:00:00 16.9 17 Sur 37 Sur 0 -- -- 48
2021-02-15 19:00:00 17.3 16 Sur 38 Este 0 -- -- 44
2021-02-15 18:00:00 17.7 13 Sur 41 Sudeste 0 -- -- 46
2021-02-15 17:00:00 18.5 15 Sudeste 41 Sudeste 0 -- -- 42
2021-02-15 16:00:00 19.9 19 Sur 39 Sur 0 -- -- 40
2021-02-15 15:00:00 20.3 15 Sur 38 Sur 0 -- -- 40
2021-02-15 14:00:00 19.8 17 Sudeste 39 Sudeste 0 -- -- 39
2021-02-15 13:00:00 18.3 18 Sudeste 42 Sudeste 0 -- -- 40
2021-02-15 12:00:00 16.8 18 Sur 43 Sur 0 -- -- 42
2021-02-15 11:00:00 15.2 23 Sudeste 42 Sudeste 0 -- -- 48
2021-02-15 10:00:00 15.5 10 Sudeste 27 Sur 0 -- -- 39
2021-02-15 09:00:00 15.1 7 Sudeste 22 Sudeste 0 -- -- 35
2021-02-15 08:00:00 14.9 5 Sur 19 Sudeste 0 -- -- 35
2021-02-15 07:00:00 16 11 Sur 26 Sudeste 0 -- -- 30
2021-02-15 06:00:00 16.5 8 Sur 31 Sudoeste 0 -- -- 32
2021-02-15 05:00:00 17.1 13 Sur 36 Sudeste 0 -- -- 32
2021-02-15 04:00:00 16.2 12 Sur 35 Sur 0 -- -- 40
2021-02-15 03:00:00 16.1 15 Sur 32 Sur 0 -- -- 44
2021-02-15 02:00:00 16.2 15 Sur 39 Sur 0 -- -- 48
2021-02-15 01:00:00 16.3 16 Sur 33 Sur 0 -- -- 49
2021-02-15 00:00:00 16.2 13 Sudeste 30 Sudeste 0 -- -- 52
2021-02-14 23:00:00 15.7 9 Sur 31 Este 0 -- -- 53
2021-02-14 22:00:00 15.1 7 Sur 24 Este 0 -- -- 57
2021-02-14 21:00:00 14.6 6 Sur 22 Sudeste 0 -- -- 60
2021-02-14 20:00:00 14.2 5 Sur 23 Sudeste 0 -- -- 62
2021-02-14 19:00:00 14.6 12 Sur 31 Sudeste 0 -- -- 62
2021-02-14 18:00:00 15.3 13 Sur 37 Sur 0 -- -- 59
2021-02-14 17:00:00 16.3 13 Sudeste 30 Sudoeste 0 -- -- 57
2021-02-14 16:00:00 16.8 20 Sudeste 36 Sudeste 0 -- -- 55
2021-02-14 15:00:00 17.9 13 Sudeste 38 Sudeste 0 -- -- 51
2021-02-14 14:00:00 18.2 18 Sur 37 Sudeste 0 -- -- 48
2021-02-14 13:00:00 18.2 15 Sudeste 41 Sudeste 0 -- -- 49
2021-02-14 12:00:00 18.1 16 Sur 36 Sudeste 0 -- -- 48
2021-02-14 11:00:00 17 14 Sur 28 Sudeste 0 -- -- 53
2021-02-14 10:00:00 14.6 12 Sur 22 Sur 0 -- -- 58
2021-02-14 09:00:00 12.6 11 Sur 23 Sudeste 0 -- -- 66
2021-02-14 08:00:00 11.6 7 Sur 19 Sudeste 0 -- -- 69
2021-02-14 07:00:00 12.8 7 Sur 26 Sur 0 -- -- 66
2021-02-14 06:00:00 11.7 12 Sur 22 Sur 0 -- -- 71
2021-02-14 05:00:00 9.4 8 Sur 19 Sudeste 0 -- -- 77
2021-02-14 04:00:00 4.3 0 Calma 5 Noroeste 0 -- -- 98
2021-02-14 03:00:00 4.2 0 Calma 4 Oeste 0 -- -- 97
2021-02-14 02:00:00 5.1 0 Calma 15 Sudeste 0 -- -- 96
2021-02-14 01:00:00 5.8 4 Sudeste 10 Sudeste 0 -- -- 95
2021-02-14 00:00:00 6.4 0 Calma 10 Sudeste 0 -- -- 94
2021-02-13 23:00:00 7.2 3 Sur 14 Sur 0 -- -- 94
2021-02-13 22:00:00 8.2 4 Sur 13 Sudeste 0 -- -- 93
2021-02-13 21:00:00 9.5 0 Calma 6 Sudoeste 0 -- -- 90
2021-02-13 20:00:00 11 2 Sudoeste 10 Sudeste 0 -- -- 86
2021-02-13 19:00:00 12.6 2 Sudoeste 12 Sudoeste 0 -- -- 80
2021-02-13 18:00:00 15 7 Oeste 20 Norte 0 -- -- 70
2021-02-13 17:00:00 16 10 Norte 19 Norte 0 -- -- 65
2021-02-13 16:00:00 16.1 12 Norte 22 Norte 0 -- -- 64
2021-02-13 15:00:00 15.8 4 Noroeste 18 Norte 0 -- -- 63
2021-02-13 14:00:00 14.8 2 Norte 12 Noroeste 0 -- -- 65
2021-02-13 13:00:00 13.3 5 Norte 15 Sudeste 0 -- -- 69
2021-02-13 08:00:00 -- -- -- -- -- -- -- -- --
2021-02-13 07:00:00 4.8 0 Calma 11 Oeste 0 -- -- 96
2021-02-13 06:00:00 4.6 2 Norte 7 Sur 0 -- -- 96
2021-02-13 05:00:00 4.5 5 Sudoeste 8 Sur 0 -- -- 97
2021-02-13 04:00:00 4.8 2 Sur 8 Sudoeste 0 -- -- 96
2021-02-13 03:00:00 4.3 2 Sudoeste 9 Sudeste 0 -- -- 98
2021-02-13 02:00:00 4.4 2 Sur 7 Sudeste 0 -- -- 96
2021-02-13 01:00:00 4.8 3 Sudoeste 8 Sudeste 0 -- -- 96
2021-02-13 00:00:00 5.3 0 Calma 9 Sudeste 0 -- -- 94
2021-02-12 23:00:00 5.6 0 Calma 4 Sur 0 -- -- 94
2021-02-12 22:00:00 6.3 3 Sur 10 Sudeste 0 -- -- 91
2021-02-12 21:00:00 7.5 4 Sur 12 Sur 0 -- -- 90
2021-02-12 20:00:00 8.1 4 Sur 9 Sudeste 0 -- -- 87
2021-02-12 19:00:00 10.7 2 Sudoeste 14 Sudoeste 0 -- -- 75
2021-02-12 18:00:00 13 8 Oeste 17 Oeste 0 -- -- 63
2021-02-12 17:00:00 13.8 6 Oeste 16 Norte 0 -- -- 61
2021-02-12 16:00:00 14.9 6 Norte 14 Norte 0 -- -- 60
2021-02-12 15:00:00 14.6 4 Noroeste 14 Norte 0 -- -- 64
2021-02-12 14:00:00 13.2 6 Norte 15 Norte 0 -- -- 81
2021-02-12 13:00:00 12.4 6 Norte 12 Norte 0 -- -- 87
2021-02-12 12:00:00 10.5 4 Norte 9 Norte 0 -- -- 95
2021-02-12 11:00:00 9.6 4 Norte 8 Este 0 -- -- 98
2021-02-12 10:00:00 9 0 Calma 10 Sudeste 0 -- -- 98
2021-02-12 09:00:00 8.8 8 Sudeste 15 Sudeste 0.4 -- -- 98
2021-02-12 08:00:00 9 8 Sudeste 12 Sur 1.4 -- -- 97
2021-02-12 07:00:00 9 5 Noroeste 15 Sur 0.4 -- -- 95
2021-02-12 06:00:00 10.4 5 Este 24 Norte 4.2 -- -- 87
2021-02-12 05:00:00 10.3 5 Sur 12 Sur 0 -- -- 100
2021-02-12 04:00:00 10.4 3 Sudoeste 6 Sudeste 0 -- -- 99
2021-02-12 03:00:00 10.5 2 Sudeste 6 Noroeste 0.2 -- -- 99
2021-02-12 02:00:00 10.5 0 Calma 4 Sudoeste 1.2 -- -- 97
2021-02-12 01:00:00 11.1 0 Calma 9 Sudoeste 1.2 -- -- 96
2021-02-12 00:00:00 11.7 5 Sudoeste 16 Sudoeste 0.6 -- -- 94
2021-02-11 23:00:00 11.5 0 Calma 9 Noroeste 0 -- -- 92
2021-02-11 22:00:00 11.8 3 Sudoeste 14 Sudeste 0 -- -- 89
2021-02-11 21:00:00 12.6 9 Sur 15 Sudeste 0.2 -- -- 86
2021-02-11 20:00:00 13.7 7 Sur 21 Sudeste 0 -- -- 79
2021-02-11 19:00:00 15.2 9 Sur 25 Sudeste 0 -- -- 64
2021-02-11 18:00:00 15.9 11 Sur 24 Sudeste 0 -- -- 61
2021-02-11 17:00:00 16 6 Sur 24 Sudeste 0 -- -- 61
2021-02-11 16:00:00 16.4 8 Sur 21 Sudeste 0 -- -- 59
2021-02-11 15:00:00 16.6 12 Sudeste 25 Sudeste 0 -- -- 58
2021-02-11 14:00:00 17 10 Sur 20 Sur 0 -- -- 58
2021-02-11 13:00:00 16.5 7 Sur 23 Sur 0 -- -- 60
2021-02-11 12:00:00 15.2 7 Sur 19 Sudeste 0 -- -- 62
2021-02-11 11:00:00 15.1 10 Sudeste 31 Sur 0 -- -- 64
2021-02-11 10:00:00 15 14 Sur 28 Sudeste 0 -- -- 62
2021-02-11 09:00:00 13.8 9 Sur 19 Sudeste 0 -- -- 65
2021-02-11 08:00:00 13 10 Sur 22 Sudeste 0 -- -- 68
2021-02-11 07:00:00 7.4 5 Sudeste 13 Sudeste 0 -- -- 96
2021-02-11 06:00:00 6.8 0 Calma 5 Oeste 0 -- -- 94
2021-02-11 05:00:00 6.9 3 Norte 5 Norte 0 -- -- 92
2021-02-11 04:00:00 7.3 3 Noroeste 9 Norte 0 -- -- 90
2021-02-11 03:00:00 7.2 0 Calma 5 Oeste 0 -- -- 89
2021-02-11 02:00:00 7.4 0 Calma 4 Noroeste 0 -- -- 89
2021-02-11 01:00:00 7.3 0 Calma 4 Sudoeste 0 -- -- 89
2021-02-11 00:00:00 7.2 3 Noroeste 10 Sudeste 0 -- -- 89
2021-02-10 23:00:00 7.1 0 Calma 4 Sudeste 0 -- -- 88
2021-02-10 22:00:00 7.2 0 Calma 6 Sudoeste 0 -- -- 86
2021-02-10 21:00:00 7.9 0 Calma 3 Oeste 0 -- -- 82
2021-02-10 20:00:00 9.3 2 Sur 7 Oeste 0 -- -- 75
2021-02-10 19:00:00 10.3 3 Oeste 13 Sudoeste 0 -- -- 70
2021-02-10 18:00:00 11.9 5 Noroeste 15 Sudoeste 0 -- -- 62
2021-02-10 17:00:00 12.6 3 Norte 15 Noroeste 0 -- -- 58
2021-02-10 16:00:00 13.2 5 Noroeste 18 Norte 0 -- -- 56
2021-02-10 15:00:00 13.2 13 Norte 21 Norte 0 -- -- 56
2021-02-10 14:00:00 13.5 10 Norte 20 Norte 0 -- -- 52
2021-02-10 13:00:00 13.4 8 Norte 17 Norte 0 -- -- 52
2021-02-10 12:00:00 12.7 8 Norte 15 Norte 0 -- -- 54
2021-02-10 11:00:00 9.8 2 Sur 17 Sudeste 0 -- -- 71
2021-02-10 10:00:00 6.1 8 Sudeste 15 Sudeste 0 -- -- 86
2021-02-10 09:00:00 4.3 3 Sur 13 Sudeste 0 -- -- 91
2021-02-10 08:00:00 4.5 5 Sur 15 Sur 0 -- -- 92
2021-02-10 07:00:00 3.6 4 Sur 10 Este 0 -- -- 96
2021-02-10 06:00:00 4.2 3 Sudeste 13 Sur 0 -- -- 96
2021-02-10 05:00:00 4.1 0 Calma 5 Oeste 0 -- -- 96
2021-02-10 04:00:00 4.4 3 Sudoeste 10 Sudeste 0 -- -- 96
2021-02-10 03:00:00 4.6 3 Sudoeste 10 Sudeste 0.4 -- -- 92
2021-02-10 02:00:00 5.1 0 Calma 9 Norte 0 -- -- 86
2021-02-10 01:00:00 5 3 Sur 8 Sur 0 -- -- 85
2021-02-10 00:00:00 4.3 2 Sur 4 Sudeste 0 -- -- 86
2021-02-09 23:00:00 4.5 3 Sudoeste 11 Oeste 0 -- -- 81
2021-02-09 22:00:00 5.9 0 Calma 14 Sudeste 0 -- -- 75
2021-02-09 21:00:00 7 8 Sur 14 Sudeste 0 -- -- 72
2021-02-09 20:00:00 8.1 5 Sur 28 Sur 0 -- -- 68
2021-02-09 19:00:00 9.9 10 Sur 26 Sur 0 -- -- 57
2021-02-09 18:00:00 10.6 11 Sur 30 Sudeste 0 -- -- 57
2021-02-09 17:00:00 11.4 8 Sur 26 Sudeste 0 -- -- 51
2021-02-09 16:00:00 12.6 12 Sur 32 Sudeste 0 -- -- 45
2021-02-09 15:00:00 12.4 18 Sudeste 39 Sudeste 0 -- -- 48
2021-02-09 14:00:00 11.9 15 Sur 38 Sudeste 0 -- -- 56
2021-02-09 13:00:00 10.6 12 Sudeste 33 Sudeste 0 -- -- 55
2021-02-09 12:00:00 9.2 19 Sur 37 Sudeste 0.2 -- -- 69
2021-02-09 11:00:00 8.6 4 Oeste 14 Sudeste 1.2 -- -- 88
2021-02-09 10:00:00 9.7 9 Sur 18 Sudeste 0 -- -- 77
2021-02-09 09:00:00 11.2 9 Sudeste 32 Sudeste 0 -- -- 63
2021-02-09 08:00:00 11.5 15 Sudeste 36 Sudeste 0 -- -- 60
2021-02-09 07:00:00 11.2 18 Sudeste 42 Sudeste 0 -- -- 60
2021-02-09 06:00:00 10.5 14 Sudeste 33 Sudeste 0 -- -- 62
2021-02-09 05:00:00 10.3 14 Sur 35 Sudeste 0 -- -- 63
2021-02-09 04:00:00 10.6 11 Sur 33 Sur 0 -- -- 60
2021-02-09 03:00:00 10.5 13 Sur 25 Sur 0 -- -- 61
2021-02-09 02:00:00 10.1 10 Sur 27 Sudeste 0 -- -- 64
2021-02-09 01:00:00 5.6 4 Sudeste 12 Sudeste 0 -- -- 89
2021-02-09 00:00:00 5.2 0 Calma 5 Noroeste 0 -- -- 88
2021-02-08 23:00:00 5.4 0 Calma 13 Sudeste 0 -- -- 85
2021-02-08 22:00:00 5.5 3 Sur 14 Sudeste 0 -- -- 84
2021-02-08 21:00:00 5.8 3 Sur 9 Sudeste 0 -- -- 83
2021-02-08 20:00:00 7.9 2 Sur 10 Sudeste 0 -- -- 75
2021-02-08 19:00:00 9.8 4 Oeste 18 Nordeste 0 -- -- 64
2021-02-08 18:00:00 11.6 8 Norte 20 Nordeste 0 -- -- 59
2021-02-08 17:00:00 12.5 6 Norte 39 Norte 0 -- -- 55
2021-02-08 16:00:00 12.8 14 Norte 37 Nordeste 0 -- -- 55
2021-02-08 15:00:00 13.3 9 Sudeste 21 Sudeste 0 -- -- 52
2021-02-08 14:00:00 12.5 10 Sudeste 28 Sur 0 -- -- 57
2021-02-08 13:00:00 13.2 8 Sudeste 26 Sudeste 0 -- -- 55
2021-02-08 12:00:00 12.1 9 Sudeste 17 Este 0 -- -- 60
2021-02-08 11:00:00 6.4 2 Norte 10 Norte 0 -- -- 87
2021-02-08 10:00:00 4.6 3 Nordeste 8 Nordeste 0 -- -- 94
2021-02-08 09:00:00 3 2 Sudoeste 6 Sudeste 0 -- -- 94
2021-02-08 08:00:00 3.8 0 Calma 12 Sudeste 0 -- -- 90
2021-02-08 07:00:00 4.4 3 Sur 10 Sudeste 0 -- -- 89
2021-02-08 06:00:00 5.6 0 Calma 15 Sudeste 0 -- -- 85
2021-02-08 05:00:00 6.8 5 Sur 14 Sudeste 0 -- -- 81
2021-02-08 04:00:00 7.9 8 Sudeste 17 Sudeste 0 -- -- 76
2021-02-08 03:00:00 9.4 12 Sudeste 21 Sudeste 0 -- -- 69
2021-02-08 02:00:00 9.8 6 Sudeste 21 Sudeste 0 -- -- 69
2021-02-08 01:00:00 8.8 6 Sur 30 Sur 0 -- -- 75
2021-02-08 00:00:00 10.5 13 Sur 40 Sudeste 0 -- -- 65
2021-02-07 23:00:00 11.2 15 Sur 28 Sur 0 -- -- 64
2021-02-07 22:00:00 10.4 10 Sur 30 Sur 0 -- -- 69
2021-02-07 21:00:00 10.3 14 Sur 28 Sudeste 0 -- -- 69
2021-02-07 20:00:00 9.3 12 Sur 20 Sudeste 0 -- -- 78
2021-02-07 19:00:00 7 0 Calma 14 Sur 0 -- -- 95
2021-02-07 18:00:00 7.7 0 Calma 10 Norte 0 -- -- 96
2021-02-07 17:00:00 7.9 0 Calma 13 Sudeste 0.2 -- -- 95
2021-02-07 16:00:00 7.2 4 Sudeste 8 Este 0.4 -- -- 92
2021-02-07 15:00:00 6.9 3 Norte 12 Norte 0.2 -- -- 90
2021-02-07 14:00:00 6.6 6 Norte 12 Este 0 -- -- 87
2021-02-07 13:00:00 6 5 Este 10 Sudeste 0 -- -- 87
2021-02-07 12:00:00 4.5 0 Calma 10 Noroeste 0 -- -- 93
2021-02-07 11:00:00 3.3 6 Norte 10 Norte 0 -- -- 100
2021-02-07 10:00:00 1.8 4 Sudeste 9 Sudeste 0 -- -- 100
2021-02-07 09:00:00 0.7 0 Calma 3 Sudoeste 0 -- -- 100
2021-02-07 08:00:00 0.7 0 Calma 5 Oeste 0 -- -- 100
2021-02-07 07:00:00 0.4 4 Sur 6 Sur 0 -- -- 100
2021-02-07 06:00:00 0.1 0 Calma 8 Sudeste 0 -- -- 100
2021-02-07 05:00:00 0.2 0 Calma 4 Sudeste 0 -- -- 100
2021-02-07 04:00:00 0.7 0 Calma 7 Sudeste 0 -- -- 100
2021-02-07 03:00:00 1.1 0 Calma 5 Oeste 0 -- -- 99
2021-02-07 02:00:00 2.2 0 Calma 9 Sudeste 0 -- -- 100
2021-02-07 01:00:00 1.9 2 Sur 5 Sur 0 -- -- 99
2021-02-07 00:00:00 2.3 2 Sudoeste 5 Sur 0 -- -- 98
2021-02-06 23:00:00 3.7 3 Sudoeste 10 Sudoeste 0.2 -- -- 97
2021-02-06 22:00:00 4.1 3 Noroeste 8 Norte 0 -- -- 98
2021-02-06 21:00:00 4.6 0 Calma 6 Oeste 0 -- -- 97
2021-02-06 20:00:00 4.9 4 Oeste 17 Norte 0.2 -- -- 94
2021-02-06 19:00:00 5.2 3 Oeste 10 Noroeste 0.2 -- -- 96
2021-02-06 18:00:00 5.6 4 Norte 12 Norte 0.2 -- -- 96
2021-02-06 17:00:00 5.8 8 Norte 14 Norte 1 -- -- 95
2021-02-06 16:00:00 6 6 Norte 16 Norte 2 -- -- 95
2021-02-06 15:00:00 6.4 3 Norte 15 Norte 2 -- -- 94
2021-02-06 14:00:00 6.5 6 Norte 19 Norte 2.2 -- -- 96
2021-02-06 13:00:00 6.6 5 Norte 10 Norte 2.6 -- -- 98
2021-02-06 12:00:00 6.5 0 Calma 5 Norte 2.2 -- -- 98
2021-02-06 11:00:00 6.2 0 Calma 3 Sudeste 1 -- -- 99
2021-02-06 10:00:00 5.7 0 Calma 4 Sudoeste 0.8 -- -- 97
2021-02-06 09:00:00 5.8 2 Noroeste 10 Sudeste 1.4 -- -- 96
2021-02-06 08:00:00 6.3 5 Nordeste 14 Noroeste 2 -- -- 93
2021-02-06 07:00:00 6.5 4 Noroeste 13 Norte 1.2 -- -- 98
2021-02-06 06:00:00 6.7 4 Norte 11 Norte 1.6 -- -- 98
2021-02-06 05:00:00 6.9 3 Norte 16 Noroeste 2.2 -- -- 98
2021-02-06 04:00:00 7.2 7 Norte 14 Norte 2.8 -- -- 97
2021-02-06 03:00:00 7.3 9 Norte 16 Nordeste 2.8 -- -- 99
2021-02-06 02:00:00 7.4 4 Noroeste 15 Norte 3.6 -- -- 100
2021-02-06 01:00:00 7.5 9 Norte 15 Nordeste 2 -- -- 100
2021-02-06 00:00:00 7.1 3 Norte 7 Norte 3.6 -- -- 100
2021-02-05 23:00:00 7 2 Sudoeste 5 Sudeste 5 -- -- 100
2021-02-05 22:00:00 7 3 Sudeste 6 Sudeste 3.2 -- -- 99
2021-02-05 21:00:00 7.2 0 Calma 4 Sudeste 2.6 -- -- 99
2021-02-05 20:00:00 7.6 0 Calma 6 Sur 1.8 -- -- 98
2021-02-05 19:00:00 7.8 0 Calma 2 Sudoeste 2.6 -- -- 97
2021-02-05 18:00:00 8.2 0 Calma 2 Oeste 1 -- -- 97
2021-02-05 17:00:00 8.4 0 Calma 4 Sudeste 0.6 -- -- 96
2021-02-05 16:00:00 8.6 3 Sudeste 6 Sudeste 1 -- -- 95
2021-02-05 15:00:00 8.9 4 Este 6 Sudeste 0.4 -- -- 93
2021-02-05 14:00:00 8.7 2 Sudeste 6 Este 0 -- -- 91
2021-02-05 13:00:00 8 3 Este 4 Este 0.8 -- -- 98
2021-02-05 12:00:00 7.4 0 Calma 6 Oeste 0.6 -- -- 98
2021-02-05 11:00:00 7.2 0 Calma 6 Noroeste 0.2 -- -- 98
2021-02-05 10:00:00 6.9 0 Calma 5 Sudeste 0 -- -- 99
2021-02-05 09:00:00 6.5 0 Calma 3 Oeste 0 -- -- 98
2021-02-05 08:00:00 6.5 0 Calma 8 Sur 0 -- -- 97
2021-02-05 07:00:00 6.4 4 Sur 6 Sudeste 0.2 -- -- 97
2021-02-05 06:00:00 6.3 0 Calma 6 Norte 0 -- -- 95
2021-02-05 05:00:00 6.3 0 Calma 5 Este 0 -- -- 94
2021-02-05 04:00:00 6.1 4 Sur 8 Sudeste 0 -- -- 94
2021-02-05 03:00:00 5.9 0 Calma 4 Sur 0 -- -- 93
2021-02-05 02:00:00 5.9 0 Calma 8 Sudeste 0 -- -- 93
2021-02-05 01:00:00 5.5 0 Calma 8 Sur 0 -- -- 95
2021-02-05 00:00:00 6 2 Sudeste 7 Sudeste 0 -- -- 94
2021-02-04 23:00:00 6.9 0 Calma 4 Sudoeste 0 -- -- 91
2021-02-04 22:00:00 7.3 0 Calma 4 Sudoeste 0 -- -- 91
2021-02-04 21:00:00 7.9 0 Calma 4 Norte 0 -- -- 89
2021-02-04 20:00:00 8.9 2 Sudoeste 5 Sur 0 -- -- 85
2021-02-04 19:00:00 9.9 3 Oeste 10 Sudoeste 0 -- -- 80
2021-02-04 18:00:00 10.7 4 Oeste 8 Oeste 0 -- -- 76
2021-02-04 17:00:00 11 3 Norte 15 Sudoeste 0 -- -- 75
2021-02-04 16:00:00 11.3 4 Sudoeste 20 Norte 0 -- -- 71
2021-02-04 15:00:00 12.7 4 Este 10 Sur 0 -- -- 59
2021-02-04 14:00:00 12.7 6 Sudeste 22 Sudeste 0 -- -- 57
2021-02-04 13:00:00 12.5 11 Sudeste 25 Sudeste 0 -- -- 55
2021-02-04 12:00:00 12.1 8 Sur 20 Sudeste 0 -- -- 60
2021-02-04 11:00:00 12 6 Sur 13 Sur 0 -- -- 61
2021-02-04 10:00:00 11 4 Sudoeste 14 Sur 0 -- -- 63
2021-02-04 09:00:00 8.9 3 Sudoeste 6 Sudoeste 0 -- -- 73
2021-02-04 08:00:00 10.4 3 Sur 24 Sudeste 0 -- -- 65
2021-02-04 07:00:00 11.1 12 Sur 30 Sur 0 -- -- 63
2021-02-04 06:00:00 11.2 15 Sur 29 Sudeste 0 -- -- 61
2021-02-04 05:00:00 11.1 10 Sur 27 Sudeste 0 -- -- 61
2021-02-04 04:00:00 11.5 9 Sur 25 Sudeste 0 -- -- 58
2021-02-04 03:00:00 11.7 11 Sudeste 24 Sudeste 0 -- -- 56
2021-02-04 02:00:00 11.9 15 Sudeste 30 Sudeste 0 -- -- 56
2021-02-04 01:00:00 10.6 8 Sur 14 Sur 0 -- -- 66
2021-02-04 00:00:00 11.8 8 Sur 16 Sudeste 0 -- -- 62
2021-02-03 23:00:00 12 8 Sur 17 Sudeste 0 -- -- 61
2021-02-03 22:00:00 12.4 11 Sur 19 Sudeste 0 -- -- 61
2021-02-03 21:00:00 12.1 7 Sur 15 Sudoeste 0 -- -- 62
2021-02-03 20:00:00 12.4 5 Sur 13 Sudeste 0 -- -- 59
2021-02-03 19:00:00 12.4 6 Sur 15 Sudeste 0 -- -- 58
2021-02-03 18:00:00 13.8 10 Sudeste 28 Sudeste 0 -- -- 55
2021-02-03 17:00:00 14.2 15 Sur 33 Sudeste 0 -- -- 54
2021-02-03 16:00:00 15.7 15 Sudeste 36 Sudeste 0 -- -- 48
2021-02-03 15:00:00 16.5 13 Sudeste 41 Este 0 -- -- 42
2021-02-03 14:00:00 16.4 21 Sudeste 43 Sudeste 0 -- -- 41
2021-02-03 13:00:00 16 17 Sudeste 44 Sur 0 -- -- 43
2021-02-03 12:00:00 15.4 14 Sudeste 35 Sudeste 0 -- -- 45
2021-02-03 11:00:00 14.9 9 Sudeste 32 Sudeste 0 -- -- 49
2021-02-03 10:00:00 12.9 11 Sudeste 22 Sudeste 0 -- -- 52
2021-02-03 09:00:00 11.1 3 Sudoeste 23 Sudeste 0 -- -- 56
2021-02-03 08:00:00 12.9 17 Sudeste 46 Sudoeste 0 -- -- 46
2021-02-03 07:00:00 13.6 15 Sudeste 46 Sudeste 0 -- -- 50
2021-02-03 06:00:00 13.1 16 Sur 27 Sur 0 -- -- 61
2021-02-03 05:00:00 13.5 4 Norte 30 Sudeste 0 -- -- 67
2021-02-03 04:00:00 13.4 9 Sur 27 Sur 0 -- -- 70
2021-02-03 03:00:00 13.3 8 Sudoeste 23 Sudoeste 0 -- -- 75
2021-02-03 02:00:00 12.7 8 Sudoeste 24 Sur 0.4 -- -- 80
2021-02-03 01:00:00 13.2 9 Sur 21 Sur 0.4 -- -- 80
2021-02-03 00:00:00 13.2 5 Sudoeste 24 Sudeste 0 -- -- 73
2021-02-02 23:00:00 13 8 Sudoeste 19 Sudeste 0.2 -- -- 79
2021-02-02 22:00:00 13.2 9 Sur 33 Sudeste 0.2 -- -- 79
2021-02-02 21:00:00 15.1 12 Sudeste 29 Sudeste 0 -- -- 61
2021-02-02 20:00:00 14.4 7 Sur 22 Sudoeste 0 -- -- 66
2021-02-02 19:00:00 14.3 11 Sur 32 Sudeste 0 -- -- 70
2021-02-02 18:00:00 15.8 17 Sur 35 Sur 0 -- -- 63
2021-02-02 17:00:00 16.7 18 Sur 46 Sudeste 0 -- -- 58
2021-02-02 16:00:00 17.3 22 Sur 51 Este 0 -- -- 59
2021-02-02 15:00:00 17.4 17 Sudeste 48 Sudeste 0 -- -- 56
2021-02-02 14:00:00 17.2 25 Sudeste 49 Sudeste 0 -- -- 56
2021-02-02 13:00:00 15.9 17 Sur 49 Sudeste 0 -- -- 61
2021-02-02 12:00:00 16.7 14 Sudeste 41 Sudeste 0 -- -- 56
2021-02-02 11:00:00 16.3 14 Sur 35 Sudeste 0 -- -- 57
2021-02-02 10:00:00 15.4 16 Sur 34 Sur 0 -- -- 57
2021-02-02 09:00:00 15.7 17 Sudeste 35 Sur 0 -- -- 56
2021-02-02 08:00:00 15.1 12 Sur 35 Sur 0 -- -- 58
2021-02-02 07:00:00 15.4 17 Sur 31 Sur 0 -- -- 56
2021-02-02 06:00:00 15.2 12 Sur 30 Sur 0 -- -- 53
2021-02-02 05:00:00 15 14 Sur 26 Sudeste 0 -- -- 53
2021-02-02 04:00:00 10.8 2 Norte 18 Oeste 0 -- -- 73
2021-02-02 03:00:00 11.2 2 Norte 15 Norte 0 -- -- 73
2021-02-02 02:00:00 14.7 7 Sur 19 Sudeste 0 -- -- 57
2021-02-02 01:00:00 14.7 6 Sur 15 Sur 0 -- -- 59
2021-02-02 00:00:00 15.2 7 Sur 21 Sudeste 0 -- -- 59
2021-02-01 23:00:00 14.9 8 Sur 19 Sur 0 -- -- 61
2021-02-01 22:00:00 16 9 Sur 19 Sudeste 0 -- -- 56
2021-02-01 21:00:00 14.6 8 Sur 16 Sur 0 -- -- 64
2021-02-01 20:00:00 14.4 8 Sur 17 Sudeste 0 -- -- 64
2021-02-01 19:00:00 16 7 Sur 12 Sudeste 0 -- -- 59
2021-02-01 18:00:00 16.5 3 Sudoeste 22 Norte 0 -- -- 61
2021-02-01 17:00:00 18.6 6 Oeste 19 Norte 0 -- -- 50
2021-02-01 16:00:00 20.1 4 Norte 18 Sudeste 0 -- -- 42
2021-02-01 15:00:00 19.8 6 Sudeste 20 Este 0 -- -- 43
2021-02-01 14:00:00 18.3 2 Sudoeste 17 Norte 0 -- -- 54
2021-02-01 13:00:00 18.7 10 Nordeste 33 Nordeste 0 -- -- 48
2021-02-01 12:00:00 17.5 10 Norte 31 Norte 0 -- -- 51
2021-02-01 11:00:00 16.2 8 Norte 24 Norte 0 -- -- 57
2021-02-01 10:00:00 16 10 Noroeste 31 Oeste 0 -- -- 56
2021-02-01 09:00:00 15.8 9 Norte 28 Sudoeste 0 -- -- 55
2021-02-01 08:00:00 12.7 6 Sudeste 19 Sudeste 0 -- -- 57
2021-02-01 07:00:00 10.7 6 Sur 22 Sur 0 -- -- 60
2021-02-01 06:00:00 11.9 9 Sur 38 Norte 0 -- -- 52
2021-02-01 05:00:00 15.8 8 Sudeste 25 Noroeste 0 -- -- 40
2021-02-01 04:00:00 15.2 5 Sur 42 Oeste 0 -- -- 41
2021-02-01 03:00:00 15 10 Oeste 35 Norte 0 -- -- 43
2021-02-01 02:00:00 14.5 11 Noroeste 31 Noroeste 0 -- -- 48
2021-02-01 01:00:00 14.5 6 Oeste 45 Noroeste 0 -- -- 49
2021-02-01 00:00:00 14.7 9 Noroeste 44 Norte 0 -- -- 49
2021-01-31 23:00:00 15 8 Norte 37 Sudoeste 0 -- -- 46
2021-01-31 22:00:00 15.5 10 Noroeste 40 Nordeste 0 -- -- 46
2021-01-31 21:00:00 16.2 6 Norte 36 Norte 0 -- -- 44
2021-01-31 20:00:00 16.5 8 Norte 35 Sudoeste 0 -- -- 43
2021-01-31 19:00:00 16.8 11 Sur 37 Sur 0 -- -- 45
2021-01-31 18:00:00 16.8 7 Sur 22 Sur 0 -- -- 45
2021-01-31 17:00:00 17.6 6 Sur 24 Oeste 0 -- -- 42
2021-01-31 16:00:00 19.6 10 Sudeste 33 Sur 0 -- -- 37
2021-01-31 15:00:00 19.9 6 Nordeste 30 Norte 0 -- -- 38
2021-01-31 14:00:00 19.9 10 Norte 27 Norte 0 -- -- 40
2021-01-31 13:00:00 19.4 13 Norte 28 Nordeste 0 -- -- 43
2021-01-31 12:00:00 16.5 9 Norte 45 Nordeste 0 -- -- 67
2021-01-31 11:00:00 11.7 9 Sudeste 20 Sudeste 0.2 -- -- 88
2021-01-31 10:00:00 9.8 7 Sur 26 Este 0 -- -- 91
2021-01-31 09:00:00 9 10 Sudeste 26 Sudeste 0 -- -- 88
2021-01-31 08:00:00 8.9 14 Sudeste 23 Sudeste 0 -- -- 86
2021-01-31 07:00:00 9.4 10 Sudeste 21 Sur 0 -- -- 80
2021-01-31 06:00:00 10.8 7 Sudeste 24 Norte 0 -- -- 67
2021-01-31 05:00:00 11.9 12 Nordeste 24 Nordeste 0 -- -- 51
2021-01-31 04:00:00 11.9 9 Sudeste 23 Nordeste 0 -- -- 53
2021-01-31 03:00:00 11.3 12 Nordeste 30 Nordeste 0 -- -- 56
2021-01-31 02:00:00 11.2 12 Norte 33 Oeste 0 -- -- 58
2021-01-31 01:00:00 11.3 9 Norte 25 Nordeste 0 -- -- 60
2021-01-31 00:00:00 10.7 9 Nordeste 28 Norte 0 -- -- 63